Flight Track Log - Related Links

Times and Time Zones

All times are in EDT time to prevent confusion due to time zone crossing. See the AAL461 flight status page for this flight to view local times or setup timezone preferences in your user account.

Time Position Orientation Groundspeed Altitude Reporting Facility
EDT Latitude Longitude Course Direction KTS MPH feet Rate Location/Type
Mon 07:21:18 PM 44.8814 -93.2736 144° Southeast 199 229 2,600  Level FAA TRACON SMA TRACON (SMA)
Mon 07:21:38 PM 44.8728 -93.3094 251° West 244 281 3,400 3,000 Climbing FAA TRACON SMA TRACON (SMA)
Mon 07:21:58 PM 44.8658 -93.3408 253° West 270 311 4,600 3,805 Climbing FAA TRACON SMA TRACON (SMA)
Mon 07:22:19 PM 44.8539 -93.3800 247° West 285 328 6,000 4,829 Climbing FAA TRACON SMA TRACON (SMA)
Mon 07:22:39 PM 44.8356 -93.3981 215° Southwest 278 320 7,900 4,950 Climbing FAA TRACON SMA TRACON (SMA)
Mon 07:22:59 PM 44.8153 -93.4017 187° South 254 292 9,300 3,750 Climbing FAA TRACON SMA TRACON (SMA)
Mon 07:23:00 PM 44.5776 -93.3375 156° South  Level Estimated
Mon 07:23:19 PM 44.7892 -93.3881 160° South 258 297 10,400  Level FAA TRACON SMA TRACON (SMA)
Mon 07:23:39 PM 44.7681 -93.3747 156° South 267 307 11,200 2,100 Climbing FAA TRACON SMA TRACON (SMA)
Mon 07:23:59 PM 44.7464 -93.3581 151° Southeast 282 325 11,800 1,800 Climbing FAA TRACON SMA TRACON (SMA)
Mon 07:24:00 PM 44.4761 -93.3758 152° Southeast  Level Estimated
Mon 07:24:19 PM 44.7183 -93.3344 149° Southeast 305 351 12,400  Level FAA TRACON SMA TRACON (SMA)
Mon 07:24:39 PM 44.6939 -93.3133 148° Southeast 326 375 12,800 1,650 Climbing FAA TRACON SMA TRACON (SMA)
Mon 07:24:59 PM 44.6689 -93.2911 148° Southeast 343 395 13,500 2,462 Climbing FAA TRACON SMA TRACON (SMA)
Mon 07:25:00 PM 44.3745 -93.4140 157° South  Level Estimated
Mon 07:25:18 PM 44.6369 -93.2636 149° Southeast 351 404 14,400  Level FAA TRACON SMA TRACON (SMA)
Mon 07:25:38 PM 44.6108 -93.2408 148° Southeast 356 410 15,100 2,250 Climbing FAA TRACON SMA TRACON (SMA)
Mon 07:25:58 PM 44.5864 -93.2125 140° Southeast 365 420 15,900 2,488 Climbing FAA TRACON SMA TRACON (SMA)
Mon 07:26:00 PM 44.2730 -93.4520 144° Southeast  Level Estimated
Mon 07:26:19 PM 44.5564 -93.1753 139° Southeast 371 427 16,800  Level FAA TRACON SMA TRACON (SMA)
Mon 07:26:38 PM 44.5331 -93.1444 137° Southeast 375 432 17,500 1,846 Climbing FAA TRACON SMA TRACON (SMA)
Mon 07:26:58 PM 44.5089 -93.1133 137° Southeast 380 437 18,000 2,100 Climbing FAA TRACON SMA TRACON (SMA)
Mon 07:27:18 PM 44.4789 -93.0742 137° Southeast 385 443 18,900 1,902 Climbing FAA TRACON SMA TRACON (SMA)
Mon 07:27:39 PM 44.4544 -93.0425 137° Southeast 387 445 19,300 1,610 Climbing FAA TRACON SMA TRACON (SMA)
Mon 07:27:59 PM 44.4297 -93.0100 137° Southeast 391 450 20,000 1,950 Climbing FAA TRACON SMA TRACON (SMA)
Mon 07:28:19 PM 44.3994 -92.9681 135° Southeast 398 458 20,600 1,350 Climbing FAA TRACON SMA TRACON (SMA)
Mon 07:28:39 PM 44.3744 -92.9342 136° Southeast 403 464 20,900 900 Climbing FAA TRACON SMA TRACON (SMA)
Mon 07:28:59 PM 44.3489 -92.9017 138° Southeast 404 465 21,200 1,050 Climbing FAA TRACON SMA TRACON (SMA)
Mon 07:29:19 PM 44.3206 -92.8611 134° Southeast 387 445 21,600 750 Climbing FAA TRACON SMA TRACON (SMA)
Mon 07:29:39 PM 44.2978 -92.8278 134° Southeast 380 437 21,700 450 Climbing FAA TRACON SMA TRACON (SMA)
Mon 07:29:59 PM 44.2750 -92.7956 135° Southeast 379 436 21,900 450 Climbing FAA TRACON SMA TRACON (SMA)
Mon 07:30:19 PM 44.2461 -92.7561 136° Southeast 379 436 22,000 150 Climbing FAA TRACON SMA TRACON (SMA)
Mon 07:30:39 PM 44.2233 -92.7228 134° Southeast 381 438 22,000  Level FAA TRACON SMA TRACON (SMA)
Mon 07:30:59 PM 44.2006 -92.6903 134° Southeast 380 437 22,000  Level FAA TRACON SMA TRACON (SMA)
Mon 07:31:18 PM 44.1717 -92.6517 136° Southeast 378 435 22,000  Level FAA TRACON SMA TRACON (SMA)
Mon 07:31:38 PM 44.1492 -92.6186 133° Southeast 380 437 22,000  Level FAA TRACON SMA TRACON (SMA)
Mon 07:31:59 PM 44.1258 -92.5861 135° Southeast 381 438 22,000  Level FAA TRACON SMA TRACON (SMA)
Mon 07:32:18 PM 44.0975 -92.5461 135° Southeast 379 436 22,000  Level FAA TRACON SMA TRACON (SMA)
Mon 07:32:38 PM 44.0753 -92.5125 133° Southeast 379 436 22,000  Level FAA TRACON SMA TRACON (SMA)
Mon 07:32:59 PM 44.0528 -92.4803 134° Southeast 378 435 22,000  Level FAA TRACON SMA TRACON (SMA)
Mon 07:33:56 PM 43.9761 -92.3872 139° Southeast 379 436 22,000  Level Minneapolis Center
Mon 07:34:58 PM 43.9022 -92.2833 135° Southeast 380 437 22,000 -49 Level Minneapolis Center
Mon 07:35:59 PM 43.8042 -92.2319 159° South 373 429 21,900  Descending Minneapolis Center
Mon 07:37:01 PM 43.7050 -92.2053 169° South 369 425 22,000 48 Climbing Minneapolis Center
Mon 07:38:03 PM 43.6050 -92.1836 171° South 367 422 22,000  Level Minneapolis Center
Mon 07:39:05 PM 43.5092 -92.1356 160° South 372 428 22,000 -48 Level Minneapolis Center
Mon 07:40:07 PM 43.4494 -92.0108 123° Southeast 387 445 21,900 48 Descending Minneapolis Center
Mon 07:41:09 PM 43.3967 -91.8425 113° Southeast 398 458 22,100 49 Climbing Minneapolis Center
Mon 07:42:10 PM 43.3500 -91.7053 115° Southeast 398 458 22,000 -98 Descending Minneapolis Center
Mon 07:43:12 PM 43.3042 -91.5672 114° Southeast 399 459 21,900 -823 Descending Minneapolis Center
Mon 07:44:14 PM 43.2575 -91.4306 115° Southeast 397 457 20,300 -1,887 Descending Minneapolis Center
Mon 07:45:16 PM 43.2133 -91.2994 115° Southeast 386 444 18,000 -1,452 Descending Minneapolis Center
Mon 07:46:18 PM 43.1700 -91.1725 115° Southeast 374 430 17,300 -484 Descending Minneapolis Center
Mon 07:47:20 PM 43.1261 -91.0428 115° Southeast 375 432 17,000 -145 Descending Minneapolis Center
Mon 07:48:22 PM 43.0753 -90.8944 115° Southeast 365 420 17,000 -537 Level Minneapolis Center
Mon 07:49:34 PM 43.0239 -90.7489 116° Southeast 361 415 15,800 -985 Descending Chicago Center
Mon 07:50:36 PM 42.9831 -90.6283 115° Southeast 352 405 14,800 -1,024 Descending Chicago Center
Mon 07:51:37 PM 42.9425 -90.5092 115° Southeast 349 402 13,700 -976 Descending Chicago Center
Mon 07:52:39 PM 42.9014 -90.3942 116° Southeast 342 394 12,800 -871 Descending Chicago Center
Mon 07:53:41 PM 42.8614 -90.2806 116° Southeast 338 389 11,900 -435 Descending Chicago Center
Mon 07:54:43 PM 42.8128 -90.1444 116° Southeast 335 386 11,900  Level Chicago Center
Mon 07:55:45 PM 42.7717 -90.0325 117° Southeast 334 384 11,900 49 Level Chicago Center
Mon 07:56:46 PM 42.7314 -89.9178 116° Southeast 337 388 12,000  Climbing Chicago Center
Mon 07:57:48 PM 42.6897 -89.8103 118° Southeast 333 383 11,900  Descending Chicago Center
Mon 07:58:50 PM 42.6411 -89.6772 116° Southeast 335 386 12,000 48 Climbing Chicago Center
Mon 07:59:54 PM 42.6014 -89.5628 115° Southeast 336 387 12,000  Level Chicago Center
Mon 08:00:56 PM 42.5597 -89.4508 117° Southeast 333 383 12,000 -290 Level Chicago Center
Mon 08:01:58 PM 42.5183 -89.3381 116° Southeast 334 384 11,400 -726 Descending Chicago Center
Mon 08:03:00 PM 42.4706 -89.2064 116° Southeast 334 384 10,500 -677 Descending Chicago Center
Mon 08:04:02 PM 42.4308 -89.0986 117° Southeast 324 373 10,000 -293 Descending Chicago Center
Mon 08:05:03 PM 42.3900 -88.9911 117° Southeast 323 372 9,900  Descending Chicago Center
Mon 08:06:05 PM 42.3506 -88.8839 116° Southeast 319 367 10,000 48 Climbing Chicago Center
Mon 08:07:07 PM 42.3100 -88.7739 116° Southeast 319 367 10,000  Level Chicago Center
Mon 08:08:09 PM 42.2667 -88.6711 120° Southeast 318 366 10,000 -49 Level Chicago Center
Mon 08:09:10 PM 42.1992 -88.6203 151° Southeast 279 321 9,900 -195 Descending Chicago Center
Mon 08:10:12 PM 42.1172 -88.5583 151° Southeast 282 325 9,600 -532 Descending Chicago Center
Mon 08:11:14 PM 42.0469 -88.5278 162° South 270 311 8,800 -871 Descending Chicago Center
Mon 08:12:16 PM 41.9814 -88.4942 159° South 254 292 7,800 -878 Descending Chicago Center
Mon 08:13:17 PM 41.9675 -88.4147 103° East 216 249 7,000 -919 Descending Chicago Center
Mon 08:14:20 PM 41.9669 -88.3381 91° East 208 239 5,900 -871 Descending Chicago Center
Mon 08:15:21 PM 41.9664 -88.2717 91° East 186 214 5,200 -537 Descending Chicago Center
Mon 08:16:23 PM 41.9675 -88.2078 89° East 175 201 4,800 -780 Descending Chicago Center
Mon 08:17:24 PM 41.9678 -88.1350 90° East 167 192 3,600 -927 Descending Chicago Center
Mon 08:18:26 PM 41.9681 -88.0786 90° East 162 186 2,900 -677 Descending Chicago Center
Mon 08:19:28 PM 41.9686 -88.0300 89° East 149 171 2,200 -726 Descending Chicago Center
Mon 08:20:30 PM 41.9692 -87.9803 89° East 140 161 1,400 -488 Descending Chicago Center
Mon 08:21:31 PM 41.9697 -87.9328 89° East 139 160 1,200 -197 Descending Chicago Center
Mon 08:23:00 PM 41.9667 -87.9000 124° Southeast  Level FlightAware Approximate

Login

Don't have an account? Register now (free) for customized features, flight alerts, and more!